Latest Weather Observations for Broome

IDW60801

Issued at 2:34 pm WST Saturday 25 February 2017 (issued every 30 minutes, with the page automatically refreshed every 10 minutes)

About weather observations | Map of weather stations | Latest weather observations for WA | Other Formats
Station Details ID: 003003 Name: BROOME AIRPORT Lat: -17.95 Lon: 122.24 Height: 7.42 m
Data from the previous 72 hours. | See also: Recent months at Broome
Date/Time
WST
Temp
°C
App
Temp
°C
Dew
Point
°C
Rel
Hum
%
Delta-T
°C
Wind Press
QNH
hPa
Press
MSL
hPa
Rain since
9am
mm
Dir  Spd
km/h
Gust
km/h
Spd
kts
Gust
kts
25/02:30pm 36.1 37.0 22.7 46 9.3 E 22 33 12 18 1006.3 - 0.0
25/02:00pm 36.3 37.2 21.9 43 9.9 E 20 30 11 16 1006.5 - 0.0
25/01:30pm 36.2 36.6 21.8 43 9.9 E 22 33 12 18 1007.0 - 0.0
25/01:00pm 35.6 36.8 22.1 45 9.3 E 19 30 10 16 1007.5 - 0.0
25/12:30pm 35.5 36.5 22.1 45 9.2 E 20 28 11 15 1008.0 - 0.0
25/12:00pm 35.2 36.3 22.4 47 8.8 E 20 30 11 16 1008.4 1008.3 0.0
25/11:30am 35.2 36.2 22.1 46 9.0 E 20 28 11 15 1008.7 - 0.0
25/11:00am 34.9 34.9 21.0 44 9.4 E 22 32 12 17 1008.9 - 0.0
25/10:30am 34.8 35.9 22.3 48 8.6 E 20 28 11 15 1009.2 - 0.0
25/10:00am 34.0 35.1 22.3 50 8.0 E 20 28 11 15 1009.4 - 0.0
25/09:30am 33.5 35.4 23.4 55 7.0 E 19 24 10 13 1009.4 - 0.0
25/09:00am 32.7 34.0 22.7 55 6.9 E 20 28 11 15 1009.6 1009.5 0.4
25/08:30am 31.9 33.2 22.6 58 6.4 ESE 20 28 11 15 1009.6 - 0.4
25/08:00am 31.3 34.1 23.0 61 5.7 ESE 13 19 7 10 1009.5 - 0.4
25/07:30am 29.9 34.0 24.0 70 4.1 ESE 9 15 5 8 1009.3 - 0.4
25/07:00am 29.4 33.9 23.9 72 3.8 ESE 7 9 4 5 1009.1 - 0.4
25/06:30am 28.2 32.4 23.5 75 3.2 E 7 11 4 6 1009.0 - 0.4
25/06:00am 28.5 32.0 23.6 75 3.4 SE 11 15 6 8 1009.0 1008.9 0.4
25/05:30am 28.9 32.3 24.0 75 3.4 SE 13 19 7 10 1008.8 - 0.4
25/05:00am 29.3 32.7 24.1 73 3.6 SSE 13 15 7 8 1008.5 - 0.4
25/04:30am 29.1 33.2 24.5 76 3.2 S 11 15 6 8 1008.3 - 0.4
25/04:00am 29.5 33.2 23.9 72 3.9 S 11 20 6 11 1008.3 - 0.4
25/03:30am 29.7 33.9 24.7 74 3.5 S 11 15 6 8 1008.2 - 0.4
25/03:00am 29.8 34.9 26.2 81 2.6 S 11 17 6 9 1008.0 1007.9 0.4
25/02:30am 29.5 36.1 27.7 90 1.3 SSW 9 13 5 7 1007.9 - 0.4
25/02:00am 29.5 36.4 27.6 89 1.4 SW 7 9 4 5 1008.1 - 0.4
25/01:30am 29.6 36.5 27.7 89 1.4 SW 7 9 4 5 1008.0 - 0.4
25/01:00am 29.7 37.4 27.5 88 1.6 W 2 6 1 3 1008.3 - 0.4
25/12:30am 29.8 35.9 27.6 88 1.6 WSW 11 15 6 8 1008.6 - 0.4
25/12:00am 29.8 36.7 28.2 91 1.2 WSW 9 11 5 6 1009.0 1008.9 0.4
 
Date/Time
WST
Temp
°C
App
Temp
°C
Dew
Point
°C
Rel
Hum
%
Delta-T
°C
Wind Press
QNH
hPa
Press
MSL
hPa
Rain since
9am
mm
Dir  Spd
km/h
Gust
km/h
Spd
kts
Gust
kts
24/11:30pm 29.8 36.9 28.4 92 1.0 WSW 9 13 5 7 1009.3 - 0.4
24/11:00pm 29.7 36.2 28.2 92 1.1 WSW 11 13 6 7 1009.3 - 0.4
24/10:30pm 29.2 37.7 28.0 93 0.9 CALM 0 0 0 0 1009.5 - 0.4
24/10:00pm 28.8 37.3 28.0 95 0.6 CALM 0 0 0 0 1009.5 - 0.4
24/09:30pm 28.8 35.8 27.8 94 0.7 NNE 7 9 4 5 1009.6 - 0.4
24/09:00pm 29.7 38.3 28.2 92 1.1 CALM 0 0 0 0 1009.3 1009.2 0.4
24/08:30pm 30.2 37.6 28.1 88 1.5 W 6 7 3 4 1009.2 - 0.4
24/08:00pm 30.3 37.4 28.0 87 1.7 WSW 7 11 4 6 1009.0 - 0.4
24/07:30pm 30.3 36.7 28.0 87 1.7 W 11 15 6 8 1008.7 - 0.4
24/07:00pm 30.3 36.5 27.8 86 1.8 NW 11 17 6 9 1008.6 - 0.4
24/06:30pm 31.1 36.0 26.9 78 3.0 WSW 15 20 8 11 1008.2 - 0.4
24/06:00pm 32.8 34.3 19.8 46 8.6 S 11 17 6 9 1008.0 1007.9 0.4
24/05:30pm 32.5 33.6 19.6 46 8.5 S 13 20 7 11 1007.8 - 0.4
24/05:00pm 29.8 32.0 20.3 56 6.3 SE 9 15 5 8 1008.1 - 0.4
24/04:47pm 29.8 27.5 17.7 48 7.7 E 26 35 14 19 1008.5 - 0.4
24/04:39pm 29.5 25.3 19.0 53 6.8 ENE 39 63 21 34 1008.9 - 0.2
24/04:34pm 32.7 29.9 17.2 39 9.9 ESE 28 63 15 34 1008.7 - 0.0
24/04:30pm 32.0 30.8 20.1 49 7.9 ESE 26 44 14 24 1009.1 - 0.0
24/04:23pm 32.6 32.2 22.4 55 7.0 ESE 28 44 15 24 1009.1 - 0.0
24/04:00pm 32.0 36.3 26.7 73 3.8 WNW 17 24 9 13 1007.3 - 0.0
24/03:30pm 32.2 36.4 27.1 74 3.7 WNW 19 24 10 13 1007.3 - 0.0
24/03:00pm 32.4 36.3 26.0 69 4.6 WNW 17 20 9 11 1007.8 1007.7 0.0
24/02:30pm 32.5 36.5 26.2 69 4.5 WNW 17 20 9 11 1008.1 - 0.0
24/02:00pm 32.8 36.9 26.4 69 4.6 WNW 17 24 9 13 1008.6 - 0.0
24/01:30pm 32.5 35.9 26.1 69 4.6 W 20 28 11 15 1008.8 - 0.0
24/01:00pm 32.8 36.8 26.7 70 4.4 WNW 19 24 10 13 1009.2 - 0.0
24/12:30pm 32.3 36.3 26.2 70 4.4 WNW 17 24 9 13 1010.0 - 0.0
24/12:00pm 32.7 36.6 26.0 68 4.8 NW 17 22 9 12 1010.1 1010.0 0.0
24/11:30am 32.6 37.1 27.5 74 3.7 NW 19 26 10 14 1010.5 - 0.0
24/11:00am 32.8 36.9 26.4 69 4.6 WNW 17 22 9 12 1010.9 - 0.0
24/10:30am 31.9 35.5 25.6 69 4.5 WNW 17 26 9 14 1011.0 - 0.0
24/10:00am 33.5 35.9 22.9 53 7.3 SSW 15 20 8 11 1010.9 - 0.0
24/09:30am 32.8 36.8 24.4 61 5.9 SSW 11 19 6 10 1011.1 - 0.0
24/09:00am 31.9 35.7 25.3 68 4.7 SSW 15 22 8 12 1011.4 1011.3 2.0
24/08:30am 31.1 36.8 26.4 76 3.4 S 9 15 5 8 1011.5 - 2.0
24/08:00am 30.6 36.2 26.3 78 3.1 S 9 15 5 8 1011.4 - 2.0
24/07:30am 29.9 35.0 25.5 77 3.1 S 9 13 5 7 1011.3 - 2.0
24/07:00am 29.4 34.4 24.8 76 3.2 SW 7 9 4 5 1011.3 - 2.0
24/06:30am 29.0 33.2 24.7 77 3.0 SSE 11 15 6 8 1011.0 - 2.0
24/06:00am 28.6 33.5 25.2 82 2.4 SSE 9 15 5 8 1010.9 1010.8 2.0
24/05:30am 28.4 32.6 24.8 81 2.5 S 11 15 6 8 1010.5 - 2.0
24/05:00am 28.7 32.4 24.5 78 2.9 S 13 17 7 9 1010.2 - 2.0
24/04:30am 28.9 32.5 23.7 73 3.6 S 11 19 6 10 1010.1 - 2.0
24/04:00am 28.8 32.9 24.6 78 2.9 S 11 15 6 8 1010.0 - 2.0
24/03:30am 28.9 33.8 25.2 80 2.6 S 9 13 5 7 1009.7 - 2.0
24/03:00am 28.7 33.6 25.9 85 2.0 S 11 15 6 8 1009.5 1009.4 2.0
24/02:30am 28.1 32.6 23.9 78 2.9 S 7 9 4 5 1009.4 - 2.0
24/02:00am 27.6 33.0 23.8 80 2.6 N 2 7 1 4 1009.4 - 2.0
24/01:30am 26.9 31.5 24.1 85 1.9 NNE 7 9 4 5 1009.4 - 2.0
24/01:00am 26.9 31.5 24.1 85 1.9 NNE 7 11 4 6 1009.7 - 2.0
24/12:30am 26.8 31.1 24.2 86 1.8 NNE 9 11 5 6 1009.9 - 2.0
24/12:00am 27.5 31.5 23.7 80 2.6 NNE 9 13 5 7 1010.0 1009.9 2.0
 
Date/Time
WST
Temp
°C
App
Temp
°C
Dew
Point
°C
Rel
Hum
%
Delta-T
°C
Wind Press
QNH
hPa
Press
MSL
hPa
Rain since
9am
mm
Dir  Spd
km/h
Gust
km/h
Spd
kts
Gust
kts
23/11:30pm 29.2 33.0 22.7 68 4.4 W 7 15 4 8 1009.8 - 2.0
23/11:00pm 29.9 31.2 20.9 58 6.0 SW 15 24 8 13 1010.4 - 2.0
23/10:30pm 28.9 29.8 21.9 66 4.7 SW 20 30 11 16 1011.6 - 2.0
23/10:00pm 28.1 27.7 21.7 68 4.3 SSW 26 33 14 18 1012.1 - 2.0
23/09:30pm 27.3 28.0 23.0 77 2.9 SSW 24 35 13 19 1012.2 - 2.0
23/09:00pm 27.1 27.0 22.2 74 3.3 SSW 26 35 14 19 1012.5 1012.4 2.0
23/08:48pm 27.1 26.5 22.0 73 3.4 SSW 28 37 15 20 1012.8 - 1.8
23/08:30pm 26.8 29.8 23.4 81 2.3 SW 13 19 7 10 1012.2 - 1.6
23/08:00pm 26.0 29.3 21.8 77 2.8 SSE 7 11 4 6 1011.3 - 1.6
23/07:53pm 25.9 28.1 21.1 75 3.2 SSE 11 15 6 8 1011.3 - 1.6
23/07:44pm 26.1 27.3 19.9 68 4.0 SSE 13 15 7 8 1011.7 - 1.6
23/07:38pm 25.2 20.7 20.0 73 3.4 E 43 61 23 33 1011.6 - 1.6
23/07:35pm 25.2 19.2 19.6 71 3.6 E 50 61 27 33 1011.4 - 1.2
23/07:33pm 25.4 15.9 19.7 70 3.7 E 69 100 37 54 1011.2 - 0.6
23/07:32pm 26.3 21.5 19.7 67 4.3 SE 44 100 24 54 1011.2 - 0.4
23/07:31pm 26.0 22.7 21.6 76 2.9 SE 41 61 22 33 1011.4 - 0.2
23/07:30pm 26.1 22.6 21.8 77 2.9 SE 43 59 23 32 1011.7 - 0.2
23/07:20pm 25.2 20.5 22.8 86 1.6 SE 52 80 28 43 1012.3 - 0.0
23/07:14pm 26.6 20.1 20.8 70 3.8 SE 56 80 30 43 1012.2 - 0.0
23/07:13pm 27.1 21.0 21.7 72 3.6 SE 56 69 30 37 1012.0 - 0.0
23/07:06pm 28.9 25.2 19.2 55 6.3 SSE 37 56 20 30 1011.8 - 0.0
23/07:04pm 29.5 25.5 19.4 54 6.6 SSE 39 56 21 30 1011.7 - 0.0
23/07:00pm 30.8 35.8 26.5 78 3.1 SW 13 19 7 10 1010.6 - 0.0
23/06:30pm 30.8 35.8 26.6 78 3.0 W 13 19 7 10 1009.0 - 0.0
23/06:00pm 31.2 36.2 26.6 76 3.3 W 13 19 7 10 1008.9 1008.8 0.0
23/05:30pm 31.4 35.2 26.7 76 3.4 W 20 30 11 16 1008.5 - 0.0
23/05:00pm 32.1 35.5 26.7 73 3.9 W 22 28 12 15 1008.4 - 0.0
23/04:30pm 32.5 35.5 26.7 71 4.2 W 24 32 13 17 1008.0 - 0.0
23/04:00pm 32.3 35.8 26.8 73 4.0 W 22 32 12 17 1008.2 - 0.0
23/03:30pm 32.8 36.2 26.7 70 4.4 W 22 32 12 17 1008.4 - 0.0
23/03:00pm 32.8 35.6 27.0 71 4.2 W 26 33 14 18 1008.8 1008.7 0.0
23/02:30pm 33.2 36.3 26.8 69 4.6 W 24 32 13 17 1008.7 - 0.0
23/02:00pm 33.3 36.8 26.9 69 4.6 W 22 28 12 15 1008.9 - 0.0
23/01:30pm 33.4 36.9 26.8 68 4.8 W 22 30 12 16 1009.3 - 0.0
23/01:00pm 33.3 37.1 26.8 68 4.7 W 20 26 11 14 1009.6 - 0.0
23/12:30pm 32.8 36.7 26.6 70 4.5 W 19 26 10 14 1010.0 - 0.0
23/12:00pm 32.6 36.8 26.5 70 4.4 W 17 24 9 13 1010.3 1010.2 0.0
23/11:30am 32.8 36.5 26.3 68 4.7 SW 19 24 10 13 1010.7 - 0.0
23/11:00am 32.6 36.2 25.6 66 5.0 SW 17 24 9 13 1011.0 - 0.0
23/10:30am 32.3 35.6 25.1 65 5.1 SW 17 22 9 12 1011.4 - 0.0
23/10:00am 31.4 34.9 25.5 71 4.2 SW 17 24 9 13 1011.7 - 0.0
23/09:30am 31.3 35.2 26.0 73 3.8 SW 17 20 9 11 1011.8 - 0.0
23/09:00am 31.0 34.4 25.3 71 4.0 SW 17 20 9 11 1012.0 1011.9 0.0
23/08:30am 31.0 34.5 24.9 70 4.3 SW 15 20 8 11 1012.1 - 0.0
23/08:00am 30.2 33.7 24.8 73 3.8 SW 15 22 8 12 1012.1 - 0.0
23/07:30am 30.1 33.4 24.5 72 3.9 SW 15 20 8 11 1011.8 - 0.0
23/07:00am 29.4 33.6 24.8 76 3.2 WSW 11 17 6 9 1011.7 - 0.0
23/06:30am 28.5 33.0 25.2 82 2.3 SW 11 13 6 7 1011.2 - 0.0
23/06:00am 27.9 32.4 25.2 85 1.9 WSW 11 13 6 7 1010.9 1010.8 0.0
23/05:30am 27.8 32.2 25.1 85 1.9 WSW 11 13 6 7 1010.7 - 0.0
23/05:00am 27.3 33.9 25.2 88 1.5 CALM 0 0 0 0 1010.4 - 0.0
23/04:30am 26.2 32.6 24.9 92 0.9 CALM 0 0 0 0 1010.3 - 0.0
23/04:00am 26.6 33.1 25.0 91 1.1 CALM 0 0 0 0 1010.1 - 0.0
23/03:30am 26.7 33.2 25.1 91 1.1 CALM 0 0 0 0 1009.9 - 0.0
23/03:00am 26.0 32.5 25.0 94 0.7 CALM 0 0 0 0 1010.0 1009.9 0.0
23/02:30am 26.3 32.8 25.0 92 0.9 CALM 0 0 0 0 1009.9 - 0.0
23/02:00am 28.0 34.3 24.7 82 2.3 CALM 0 0 0 0 1010.2 - 0.0
23/01:30am 27.9 33.0 24.9 84 2.1 WNW 7 9 4 5 1010.4 - 0.0
23/01:00am 27.8 34.4 25.2 86 1.8 CALM 0 0 0 0 1010.7 - 0.0
23/12:30am 28.6 33.5 24.6 79 2.8 SSW 7 11 4 6 1011.1 - 0.0
23/12:00am 28.8 32.7 24.8 79 2.8 W 13 19 7 10 1011.1 1011.0 0.0
 
Date/Time
WST
Temp
°C
App
Temp
°C
Dew
Point
°C
Rel
Hum
%
Delta-T
°C
Wind Press
QNH
hPa
Press
MSL
hPa
Rain since
9am
mm
Dir  Spd
km/h
Gust
km/h
Spd
kts
Gust
kts
22/11:30pm 28.8 32.7 24.9 79 2.7 W 13 19 7 10 1011.5 - 0.0
22/11:00pm 29.0 32.4 24.7 77 3.0 SW 15 19 8 10 1012.6 - 0.0
22/10:30pm 29.0 33.1 25.2 80 2.7 WSW 13 15 7 8 1012.3 - 0.0
22/10:00pm 29.0 32.8 25.3 80 2.6 W 15 20 8 11 1012.1 - 0.0
22/09:30pm 29.4 33.1 24.5 75 3.4 WSW 13 17 7 9 1012.5 - 0.0
22/09:00pm 29.2 33.1 24.8 77 3.1 W 13 19 7 10 1012.1 1012.0 0.0
22/08:30pm 29.4 33.2 24.7 76 3.3 W 13 20 7 11 1012.2 - 0.0
22/08:00pm 28.9 34.1 25.1 80 2.7 WNW 7 13 4 7 1011.6 - 0.0
22/07:30pm 29.1 33.7 24.8 77 3.0 W 9 15 5 8 1010.8 - 0.0
22/07:00pm 29.3 33.1 24.7 76 3.2 W 13 17 7 9 1010.2 - 0.0
22/06:30pm 29.2 33.3 24.6 76 3.2 W 11 17 6 9 1010.0 - 0.0
22/06:00pm 29.8 32.7 24.5 73 3.7 W 17 20 9 11 1009.2 1009.1 0.0
22/05:30pm 30.2 33.3 24.8 73 3.8 W 17 20 9 11 1009.0 - 0.0
22/05:00pm 30.6 33.6 24.6 70 4.2 W 17 20 9 11 1009.1 - 0.0
22/04:30pm 30.8 33.0 24.0 67 4.7 W 19 24 10 13 1009.3 - 0.0
22/04:00pm 31.4 33.7 24.4 66 4.9 W 20 32 11 17 1009.5 - 0.0
22/03:30pm 31.3 33.0 24.1 65 5.0 W 22 28 12 15 1009.5 - 0.0
22/03:00pm 31.6 33.6 24.5 66 5.0 W 22 28 12 15 1009.8 1009.7 0.0

Other Formats:

Comma delimited format used in spreadsheet applications
http://www.bom.gov.au/fwo/IDW60801/IDW60801.94203.axf

JavaScript Object Notation format (JSON) in row-major order
http://www.bom.gov.au/fwo/IDW60801/IDW60801.94203.json